Time;durP1;ratioP1;P1;durP2;ratioP2;P2;SDS_P1;SDS_P2;PMS_P1;PMS_P2;Temp;Humidity;BMP_temperature;BMP_pressure;BME280_temperature;BME280_humidity;BME280_pressure;Samples;Min_cycle;Max_cycle;Signal;HPM_P1;HPM_P2
2021/06/05 00:00:20;;;;;;;17.98;16.27;;;;;;;;;;5006309;28;20191;-81
2021/06/05 00:02:46;;;;;;;18.20;16.30;;;;;;;;;;4998877;28;20262;-79
2021/06/05 00:05:11;;;;;;;18.00;16.30;;;;;;;;;;5002791;28;20196;-80
2021/06/05 00:07:37;;;;;;;17.80;16.10;;;;;;;;;;4990552;28;20187;-81
2021/06/05 00:10:05;;;;;;;18.90;17.00;;;;;;;;;;5006297;28;20201;-80
2021/06/05 00:12:31;;;;;;;18.90;17.00;;;;;;;;;;5001754;28;20366;-78
2021/06/05 00:14:57;;;;;;;17.05;15.52;;;;;;;;;;5003054;28;20224;-79
2021/06/05 00:17:25;;;;;;;16.35;14.85;;;;;;;;;;4986535;28;20187;-79
2021/06/05 00:19:51;;;;;;;17.60;15.87;;;;;;;;;;5003066;28;20192;-78
2021/06/05 00:22:18;;;;;;;17.20;15.50;;;;;;;;;;4988100;28;20590;-78
2021/06/05 00:24:46;;;;;;;16.65;15.05;;;;;;;;;;4997240;28;20274;-79
2021/06/05 00:27:11;;;;;;;16.88;15.38;;;;;;;;;;4994157;28;20722;-79
2021/06/05 00:29:36;;;;;;;17.73;15.93;;;;;;;;;;5000737;28;20223;-79
2021/06/05 00:32:02;;;;;;;17.67;16.00;;;;;;;;;;5006541;28;20187;-79
2021/06/05 00:34:27;;;;;;;19.05;16.40;;;;;;;;;;5008614;28;20238;-79
2021/06/05 00:36:53;;;;;;;17.88;15.93;;;;;;;;;;5009163;28;20291;-78
2021/06/05 00:39:18;;;;;;;17.20;15.48;;;;;;;;;;5007544;28;20199;-79
2021/06/05 00:41:46;;;;;;;18.05;16.02;;;;;;;;;;4986767;28;20647;-77
2021/06/05 00:44:13;;;;;;;17.60;16.00;;;;;;;;;;5007068;28;20214;-76
2021/06/05 00:46:39;;;;;;;16.80;15.13;;;;;;;;;;5008642;28;20195;-78
2021/06/05 00:49:07;;;;;;;17.65;16.15;;;;;;;;;;5008921;28;20196;-78
2021/06/05 00:51:43;;;;;;;17.58;15.63;;;;;;;;;;5007545;28;20690;-77
2021/06/05 00:54:11;;;;;;;17.50;15.80;;;;;;;;;;4984314;28;20579;-78
2021/06/05 00:56:36;;;;;;;15.30;13.90;;;;;;;;;;5004561;28;20187;-78
2021/06/05 00:59:02;;;;;;;15.07;13.65;;;;;;;;;;5004575;28;20187;-78
2021/06/05 01:01:30;;;;;;;15.57;14.00;;;;;;;;;;5007553;28;20270;-78
2021/06/05 01:03:59;;;;;;;16.08;14.52;;;;;;;;;;5002578;28;20207;-79
2021/06/05 01:06:34;;;;;;;15.25;13.85;;;;;;;;;;5002891;28;20346;-78
2021/06/05 01:09:07;;;;;;;15.43;13.98;;;;;;;;;;5006932;28;20183;-78
2021/06/05 01:11:59;;;;;;;15.30;13.93;;;;;;;;;;4997764;28;20246;-78
2021/06/05 01:14:37;;;;;;;14.70;13.30;;;;;;;;;;5005219;28;20523;-79
2021/06/05 01:17:07;;;;;;;18.08;13.40;;;;;;;;;;5007403;28;20183;-78
2021/06/05 01:19:43;;;;;;;14.40;12.98;;;;;;;;;;5008066;28;20659;-77
2021/06/05 01:22:21;;;;;;;14.15;12.85;;;;;;;;;;4998883;28;20526;-79
2021/06/05 01:25:16;;;;;;;13.90;12.50;;;;;;;;;;5002475;28;20164;-78
2021/06/05 01:27:51;;;;;;;14.13;12.68;;;;;;;;;;5003748;28;20199;-81
2021/06/05 01:30:26;;;;;;;14.70;13.15;;;;;;;;;;4990781;28;20595;-78
2021/06/05 01:32:52;;;;;;;14.40;13.20;;;;;;;;;;4982349;28;20762;-79
2021/06/05 01:35:22;;;;;;;14.20;12.70;;;;;;;;;;5003827;28;20192;-78
2021/06/05 01:37:47;;;;;;;13.63;12.43;;;;;;;;;;5006620;28;20199;-79
2021/06/05 01:40:14;;;;;;;14.02;12.52;;;;;;;;;;5006140;28;20192;-80
2021/06/05 01:42:42;;;;;;;14.35;13.02;;;;;;;;;;5004856;28;20235;-77
2021/06/05 01:45:13;;;;;;;14.02;12.48;;;;;;;;;;5007031;28;20179;-80
2021/06/05 01:47:39;;;;;;;14.50;13.10;;;;;;;;;;5001745;28;20339;-80
2021/06/05 01:50:07;;;;;;;14.63;13.32;;;;;;;;;;5005342;28;20183;-79
2021/06/05 01:52:35;;;;;;;14.77;13.38;;;;;;;;;;5005239;28;20840;-77
2021/06/05 01:55:04;;;;;;;16.38;13.90;;;;;;;;;;5007718;28;20221;-79
2021/06/05 01:57:33;;;;;;;14.70;13.43;;;;;;;;;;4997399;28;20564;-81
2021/06/05 01:59:59;;;;;;;17.10;14.25;;;;;;;;;;4992622;28;20192;-80
2021/06/05 02:02:25;;;;;;;16.08;14.52;;;;;;;;;;4989666;28;20224;-78
2021/06/05 02:04:51;;;;;;;16.55;14.95;;;;;;;;;;4998597;28;20179;-78
2021/06/05 02:07:18;;;;;;;13.73;12.43;;;;;;;;;;4995532;28;20187;-80
2021/06/05 02:09:43;;;;;;;16.73;15.10;;;;;;;;;;4990765;28;20276;-80
2021/06/05 02:12:24;;;;;;;16.23;14.48;;;;;;;;;;4994633;28;20607;-80
2021/06/05 02:14:55;;;;;;;14.93;13.65;;;;;;;;;;5003472;28;20592;-78
2021/06/05 02:17:23;;;;;;;15.48;14.07;;;;;;;;;;5005867;28;20187;-79
2021/06/05 02:19:55;;;;;;;14.32;12.82;;;;;;;;;;5003942;28;20187;-80
2021/06/05 02:22:23;;;;;;;14.13;12.82;;;;;;;;;;5006180;28;20237;-78
2021/06/05 02:24:55;;;;;;;14.82;13.30;;;;;;;;;;5001256;28;20180;-78
2021/06/05 02:27:23;;;;;;;13.50;12.30;;;;;;;;;;5002611;28;20652;-79
2021/06/05 02:29:50;;;;;;;13.20;11.90;;;;;;;;;;5005454;28;20219;-80
2021/06/05 02:32:20;;;;;;;13.85;12.55;;;;;;;;;;4996791;28;20249;-79
2021/06/05 02:34:46;;;;;;;15.38;13.77;;;;;;;;;;5004004;28;20321;-79
2021/06/05 02:37:17;;;;;;;16.73;14.98;;;;;;;;;;5002449;28;20692;-80
2021/06/05 02:39:43;;;;;;;15.20;13.70;;;;;;;;;;5001614;28;20199;-79
2021/06/05 02:42:12;;;;;;;14.88;13.60;;;;;;;;;;5006784;28;20544;-78
2021/06/05 02:44:42;;;;;;;15.82;14.43;;;;;;;;;;5003859;28;20194;-80
2021/06/05 02:47:09;;;;;;;16.75;15.15;;;;;;;;;;5006668;28;20206;-78
2021/06/05 02:49:35;;;;;;;15.70;14.20;;;;;;;;;;4997633;28;20210;-82
2021/06/05 02:52:07;;;;;;;15.82;14.20;;;;;;;;;;5000977;28;20184;-79
2021/06/05 02:54:33;;;;;;;16.65;14.10;;;;;;;;;;5003751;28;20222;-78
2021/06/05 02:56:58;;;;;;;15.18;13.70;;;;;;;;;;5003453;28;20432;-77
2021/06/05 02:59:24;;;;;;;16.30;14.68;;;;;;;;;;5002357;28;20215;-79
2021/06/05 03:01:51;;;;;;;17.88;14.02;;;;;;;;;;4998428;28;20660;-78
2021/06/05 03:04:17;;;;;;;16.52;14.93;;;;;;;;;;5008033;28;20259;-78
2021/06/05 03:06:43;;;;;;;15.88;14.32;;;;;;;;;;4989824;28;20261;-76
2021/06/05 03:09:11;;;;;;;15.80;14.35;;;;;;;;;;5004890;28;20435;-76
2021/06/05 03:11:37;;;;;;;16.98;15.38;;;;;;;;;;5003954;28;20256;-79
2021/06/05 03:14:02;;;;;;;17.43;15.63;;;;;;;;;;4990876;28;20247;-80
2021/06/05 03:16:28;;;;;;;15.63;14.17;;;;;;;;;;5004102;28;20226;-80
2021/06/05 03:18:53;;;;;;;15.55;13.98;;;;;;;;;;5006266;28;20188;-80
2021/06/05 03:21:19;;;;;;;17.65;16.05;;;;;;;;;;5003952;28;20183;-80
2021/06/05 03:23:47;;;;;;;17.67;16.07;;;;;;;;;;5000650;28;20215;-79
2021/06/05 03:26:13;;;;;;;16.35;14.85;;;;;;;;;;5003483;28;20203;-80
2021/06/05 03:28:38;;;;;;;20.27;17.35;;;;;;;;;;5005814;28;20175;-79
2021/06/05 03:31:04;;;;;;;19.90;17.85;;;;;;;;;;5006348;28;20187;-78
2021/06/05 03:33:30;;;;;;;19.03;17.13;;;;;;;;;;5002379;28;20226;-77
2021/06/05 03:35:55;;;;;;;19.37;17.37;;;;;;;;;;5001276;28;20195;-79
2021/06/05 03:38:24;;;;;;;19.90;17.97;;;;;;;;;;5003373;28;20687;-79
2021/06/05 03:40:52;;;;;;;20.67;18.77;;;;;;;;;;5007291;28;20188;-79
2021/06/05 03:43:20;;;;;;;22.10;19.77;;;;;;;;;;5002386;28;20204;-79
2021/06/05 03:45:45;;;;;;;22.50;20.17;;;;;;;;;;4984866;28;20184;-79
2021/06/05 03:48:11;;;;;;;23.23;20.93;;;;;;;;;;4984485;28;20194;-78
2021/06/05 03:50:49;;;;;;;22.67;20.33;;;;;;;;;;5006809;28;20550;-77
2021/06/05 03:53:15;;;;;;;18.80;16.80;;;;;;;;;;5007098;28;20302;-78
2021/06/05 03:55:41;;;;;;;18.20;16.50;;;;;;;;;;4998974;28;20203;-79
2021/06/05 03:58:09;;;;;;;16.10;14.43;;;;;;;;;;5005193;28;20713;-80
2021/06/05 04:00:38;;;;;;;16.10;14.57;;;;;;;;;;5004905;28;20273;-78
2021/06/05 04:03:06;;;;;;;16.00;14.30;;;;;;;;;;5004536;28;20201;-78
2021/06/05 04:05:32;;;;;;;16.98;15.13;;;;;;;;;;4989992;28;20245;-80
2021/06/05 04:07:58;;;;;;;16.67;15.07;;;;;;;;;;5009092;28;20253;-79
2021/06/05 04:10:25;;;;;;;16.83;15.13;;;;;;;;;;5008210;28;20662;-80
2021/06/05 04:12:51;;;;;;;16.13;14.63;;;;;;;;;;4986624;28;20262;-80
2021/06/05 04:15:17;;;;;;;15.95;14.48;;;;;;;;;;5011335;28;20211;-79
2021/06/05 04:17:43;;;;;;;15.93;14.40;;;;;;;;;;4992276;28;20202;-80
2021/06/05 04:20:13;;;;;;;17.38;15.40;;;;;;;;;;5010832;28;20187;-78
2021/06/05 04:22:38;;;;;;;18.13;16.50;;;;;;;;;;5007848;28;20327;-80
2021/06/05 04:25:05;;;;;;;16.35;15.00;;;;;;;;;;5011127;28;20735;-81
2021/06/05 04:27:30;;;;;;;17.27;15.52;;;;;;;;;;5009686;28;20179;-79
2021/06/05 04:29:58;;;;;;;17.25;15.55;;;;;;;;;;4992324;28;20678;-80
2021/06/05 04:32:23;;;;;;;16.38;14.63;;;;;;;;;;5004480;28;20341;-80
2021/06/05 04:34:48;;;;;;;17.50;15.68;;;;;;;;;;5003727;28;20219;-80
2021/06/05 04:37:14;;;;;;;17.67;15.98;;;;;;;;;;5009797;28;20344;-79
2021/06/05 04:39:40;;;;;;;18.08;16.30;;;;;;;;;;5007800;28;20249;-77
2021/06/05 04:42:07;;;;;;;17.30;15.68;;;;;;;;;;5008108;28;20282;-80
2021/06/05 04:44:32;;;;;;;17.60;16.00;;;;;;;;;;4988490;28;20195;-81
2021/06/05 04:46:58;;;;;;;18.75;17.05;;;;;;;;;;5008849;28;20194;-80
2021/06/05 04:49:23;;;;;;;17.00;15.45;;;;;;;;;;5002206;28;20566;-79
2021/06/05 04:51:48;;;;;;;18.02;16.23;;;;;;;;;;4990570;28;20308;-81
2021/06/05 04:54:14;;;;;;;17.73;16.08;;;;;;;;;;5006808;28;20596;-80
2021/06/05 04:56:43;;;;;;;18.02;16.33;;;;;;;;;;5004810;28;20199;-80
2021/06/05 04:59:09;;;;;;;18.23;16.67;;;;;;;;;;5006862;28;20266;-80
2021/06/05 05:01:35;;;;;;;19.10;17.25;;;;;;;;;;4993159;28;20207;-80
2021/06/05 05:04:01;;;;;;;19.55;17.67;;;;;;;;;;4992774;28;20285;-79
2021/06/05 05:06:29;;;;;;;20.08;17.75;;;;;;;;;;5008543;28;20197;-81
2021/06/05 05:08:55;;;;;;;19.90;18.10;;;;;;;;;;5001180;28;20306;-80
2021/06/05 05:11:20;;;;;;;19.38;17.58;;;;;;;;;;5010131;28;20225;-80
2021/06/05 05:13:48;;;;;;;21.00;18.80;;;;;;;;;;4979892;28;20738;-80
2021/06/05 05:16:14;;;;;;;19.88;17.90;;;;;;;;;;5003250;28;20194;-79
2021/06/05 05:18:45;;;;;;;20.25;18.35;;;;;;;;;;5006135;28;20191;-81
2021/06/05 05:21:11;;;;;;;21.30;18.85;;;;;;;;;;5008062;28;20285;-80
2021/06/05 05:23:37;;;;;;;21.33;19.33;;;;;;;;;;5001022;28;20482;-81
2021/06/05 05:26:07;;;;;;;23.92;19.67;;;;;;;;;;4988226;28;20187;-82
2021/06/05 05:28:36;;;;;;;21.77;19.48;;;;;;;;;;5004435;28;20205;-80
2021/06/05 05:31:05;;;;;;;20.48;18.67;;;;;;;;;;5004162;28;20210;-81
2021/06/05 05:33:34;;;;;;;21.70;19.50;;;;;;;;;;5000969;28;20224;-80
2021/06/05 05:36:00;;;;;;;22.02;19.52;;;;;;;;;;5005865;28;20219;-80
2021/06/05 05:38:30;;;;;;;21.85;19.75;;;;;;;;;;5006852;28;20354;-80
2021/06/05 05:40:56;;;;;;;21.02;19.02;;;;;;;;;;4999451;28;20746;-80
2021/06/05 05:43:22;;;;;;;20.95;19.10;;;;;;;;;;4990007;28;20306;-81
2021/06/05 05:45:47;;;;;;;21.25;19.23;;;;;;;;;;5004471;28;20270;-80
2021/06/05 05:48:14;;;;;;;22.13;19.83;;;;;;;;;;4988429;28;20180;-81
2021/06/05 05:50:41;;;;;;;21.75;19.65;;;;;;;;;;5006918;28;20183;-81
2021/06/05 05:53:09;;;;;;;21.95;19.83;;;;;;;;;;4998823;28;20212;-78
2021/06/05 05:55:35;;;;;;;23.58;21.30;;;;;;;;;;5006826;28;20187;-81
2021/06/05 05:58:06;;;;;;;21.58;19.67;;;;;;;;;;5003228;28;20261;-80
2021/06/05 06:00:34;;;;;;;22.67;20.58;;;;;;;;;;5008341;28;20656;-80
2021/06/05 06:03:01;;;;;;;22.42;20.23;;;;;;;;;;5002896;28;20634;-79
2021/06/05 06:05:27;;;;;;;22.88;20.77;;;;;;;;;;4998888;28;20557;-80
2021/06/05 06:07:53;;;;;;;22.65;20.65;;;;;;;;;;5000600;28;20184;-80
2021/06/05 06:10:21;;;;;;;22.80;20.70;;;;;;;;;;5001598;28;20184;-83
2021/06/05 06:12:47;;;;;;;23.27;21.20;;;;;;;;;;4996106;28;20261;-81
2021/06/05 06:15:22;;;;;;;20.85;19.10;;;;;;;;;;5000317;28;20208;-82
2021/06/05 06:17:48;;;;;;;22.90;20.80;;;;;;;;;;4997935;28;20222;-82
2021/06/05 06:20:26;;;;;;;24.10;21.80;;;;;;;;;;4999851;28;20175;-81
2021/06/05 06:22:53;;;;;;;23.83;21.50;;;;;;;;;;5001707;28;20211;-82
2021/06/05 06:25:20;;;;;;;23.50;21.50;;;;;;;;;;5004945;28;20184;-82
2021/06/05 06:27:47;;;;;;;24.83;22.40;;;;;;;;;;5005899;28;20198;-80
2021/06/05 06:30:21;;;;;;;24.40;21.92;;;;;;;;;;4999316;28;20198;-81
2021/06/05 06:32:52;;;;;;;23.75;21.67;;;;;;;;;;5001151;28;20621;-81
2021/06/05 06:35:22;;;;;;;25.98;23.20;;;;;;;;;;4997500;28;20234;-80
2021/06/05 06:37:48;;;;;;;25.33;22.83;;;;;;;;;;4996473;28;20187;-82
2021/06/05 06:40:15;;;;;;;24.08;21.70;;;;;;;;;;4997220;28;20717;-80
2021/06/05 06:42:40;;;;;;;24.10;21.90;;;;;;;;;;4998458;28;20683;-81
2021/06/05 06:45:07;;;;;;;25.77;23.17;;;;;;;;;;4997932;28;20240;-80
2021/06/05 06:47:34;;;;;;;24.80;22.60;;;;;;;;;;4993517;28;20195;-81
2021/06/05 06:50:00;;;;;;;24.92;22.63;;;;;;;;;;4993504;28;20192;-81
2021/06/05 06:52:26;;;;;;;24.23;21.95;;;;;;;;;;4997358;28;20227;-80
2021/06/05 06:54:54;;;;;;;25.60;23.20;;;;;;;;;;4998583;28;20679;-80
2021/06/05 06:57:20;;;;;;;24.58;22.08;;;;;;;;;;4999557;28;20643;-80
2021/06/05 06:59:46;;;;;;;25.05;22.63;;;;;;;;;;4988017;28;20718;-81
2021/06/05 07:02:11;;;;;;;24.38;22.13;;;;;;;;;;5001601;28;20235;-79
2021/06/05 07:04:37;;;;;;;25.27;22.88;;;;;;;;;;5003134;28;20210;-79
2021/06/05 07:07:03;;;;;;;24.23;22.23;;;;;;;;;;5000154;28;20550;-81
2021/06/05 07:09:31;;;;;;;24.80;22.33;;;;;;;;;;4997155;28;20184;-80
2021/06/05 07:11:56;;;;;;;24.15;21.85;;;;;;;;;;5002309;28;20580;-80
2021/06/05 07:14:22;;;;;;;24.77;22.42;;;;;;;;;;5005334;28;20234;-80
2021/06/05 07:16:49;;;;;;;25.08;22.55;;;;;;;;;;5001016;28;20660;-81
2021/06/05 07:19:15;;;;;;;26.15;23.83;;;;;;;;;;5001057;28;20365;-80
2021/06/05 07:21:41;;;;;;;26.13;23.63;;;;;;;;;;5003991;28;20273;-81
2021/06/05 07:24:06;;;;;;;25.88;23.27;;;;;;;;;;4988328;28;20191;-79
2021/06/05 07:26:32;;;;;;;26.38;24.02;;;;;;;;;;4995964;28;20184;-79
2021/06/05 07:29:03;;;;;;;24.70;22.33;;;;;;;;;;5002814;28;20570;-78
2021/06/05 07:31:51;;;;;;;25.08;22.52;;;;;;;;;;5004572;28;20221;-82
2021/06/05 07:34:21;;;;;;;24.70;22.17;;;;;;;;;;4998885;28;20199;-81
2021/06/05 07:36:50;;;;;;;25.42;23.05;;;;;;;;;;4987728;28;20176;-78
2021/06/05 07:39:21;;;;;;;24.02;21.90;;;;;;;;;;5001820;28;20199;-84
2021/06/05 07:41:49;;;;;;;23.92;21.88;;;;;;;;;;5004117;28;20191;-80
2021/06/05 07:44:16;;;;;;;23.02;20.83;;;;;;;;;;5002418;28;20217;-85
2021/06/05 07:46:43;;;;;;;23.98;21.75;;;;;;;;;;5005532;28;20218;-87
2021/06/05 07:49:09;;;;;;;24.65;22.55;;;;;;;;;;5002335;28;20186;-85
2021/06/05 07:51:34;;;;;;;22.92;20.75;;;;;;;;;;5004905;28;20180;-82
2021/06/05 07:54:00;;;;;;;24.60;22.40;;;;;;;;;;5006865;28;20218;-85
2021/06/05 07:56:25;;;;;;;23.50;21.23;;;;;;;;;;4997654;28;20195;-87
2021/06/05 07:58:50;;;;;;;23.33;21.42;;;;;;;;;;4998934;28;20182;-83
2021/06/05 08:01:18;;;;;;;23.85;21.83;;;;;;;;;;5005892;28;20437;-84
2021/06/05 08:03:44;;;;;;;25.40;23.15;;;;;;;;;;5005234;28;20207;-84
2021/06/05 08:06:10;;;;;;;24.83;22.83;;;;;;;;;;5003984;28;20648;-86
2021/06/05 08:08:35;;;;;;;25.25;23.02;;;;;;;;;;4989709;28;20194;-84
2021/06/05 08:11:03;;;;;;;25.73;23.33;;;;;;;;;;5007726;28;20744;-83
2021/06/05 08:13:28;;;;;;;26.40;23.92;;;;;;;;;;5003164;28;20214;-84
2021/06/05 08:15:53;;;;;;;27.48;24.98;;;;;;;;;;5003929;28;20184;-82
2021/06/05 08:18:21;;;;;;;27.25;24.73;;;;;;;;;;4980648;28;20222;-82
2021/06/05 08:20:51;;;;;;;27.00;24.50;;;;;;;;;;4992213;28;20245;-85
2021/06/05 08:23:19;;;;;;;25.23;23.08;;;;;;;;;;4992397;28;20218;-82
2021/06/05 08:25:45;;;;;;;27.60;24.77;;;;;;;;;;4988936;28;20223;-80
2021/06/05 08:28:11;;;;;;;27.48;24.92;;;;;;;;;;4978918;28;20194;-83
2021/06/05 08:30:44;;;;;;;27.10;24.42;;;;;;;;;;4989869;28;20188;-83
2021/06/05 08:33:11;;;;;;;26.90;24.40;;;;;;;;;;4977346;28;20253;-84
2021/06/05 08:35:37;;;;;;;26.52;24.17;;;;;;;;;;4989294;28;20250;-83
2021/06/05 08:38:04;;;;;;;27.92;25.35;;;;;;;;;;5002205;28;20238;-84
2021/06/05 08:40:41;;;;;;;27.60;25.10;;;;;;;;;;5000880;28;20275;-82
2021/06/05 08:43:07;;;;;;;26.45;24.10;;;;;;;;;;4999606;28;20671;-82
2021/06/05 08:45:33;;;;;;;27.65;24.92;;;;;;;;;;4986584;28;20283;-81
2021/06/05 08:48:03;;;;;;;26.65;24.05;;;;;;;;;;4987874;28;20226;-85
2021/06/05 08:50:30;;;;;;;25.90;23.40;;;;;;;;;;4989488;28;20278;-81
2021/06/05 08:53:07;;;;;;;25.55;23.17;;;;;;;;;;5007309;28;20219;-83
2021/06/05 08:55:47;;;;;;;26.85;24.45;;;;;;;;;;4990525;28;20265;-84
2021/06/05 08:58:32;;;;;;;25.67;23.48;;;;;;;;;;4999993;28;20191;-82
2021/06/05 09:01:18;;;;;;;24.50;22.30;;;;;;;;;;5008249;28;20189;-82
2021/06/05 09:03:46;;;;;;;24.88;22.58;;;;;;;;;;5007155;28;20203;-83
2021/06/05 09:06:30;;;;;;;24.02;21.70;;;;;;;;;;5003804;28;20535;-84
2021/06/05 09:08:56;;;;;;;25.13;22.73;;;;;;;;;;4998865;28;20196;-87
2021/06/05 09:11:21;;;;;;;24.23;21.85;;;;;;;;;;5006576;28;20195;-87
2021/06/05 09:13:47;;;;;;;24.58;22.27;;;;;;;;;;5007461;28;20687;-83
2021/06/05 09:16:18;;;;;;;24.13;22.02;;;;;;;;;;5001194;28;20301;-86
2021/06/05 09:19:06;;;;;;;23.70;21.38;;;;;;;;;;5007619;28;20201;-84
2021/06/05 09:21:35;;;;;;;25.42;23.13;;;;;;;;;;5008022;28;20201;-84
2021/06/05 09:24:25;;;;;;;23.67;21.33;;;;;;;;;;5005826;28;20287;-85
2021/06/05 09:27:08;;;;;;;26.10;23.80;;;;;;;;;;5003760;28;20215;-84
2021/06/05 09:30:04;;;;;;;25.30;22.70;;;;;;;;;;5007894;28;20220;-82
2021/06/05 09:32:55;;;;;;;23.55;21.35;;;;;;;;;;4989140;28;20269;-79
2021/06/05 09:35:26;;;;;;;23.08;21.02;;;;;;;;;;4988756;28;20578;-80
2021/06/05 09:38:32;;;;;;;23.20;21.10;;;;;;;;;;5005516;28;20262;-83
2021/06/05 09:41:05;;;;;;;23.40;21.20;;;;;;;;;;4992374;28;20574;-81
2021/06/05 09:43:30;;;;;;;23.42;21.10;;;;;;;;;;5005222;28;20196;-82
2021/06/05 09:46:21;;;;;;;22.02;19.98;;;;;;;;;;5005120;28;20660;-88
2021/06/05 09:48:52;;;;;;;23.05;20.65;;;;;;;;;;5003746;28;20191;-80
2021/06/05 09:51:29;;;;;;;21.10;19.25;;;;;;;;;;5003189;28;20190;-81
2021/06/05 09:54:11;;;;;;;21.13;19.23;;;;;;;;;;4994758;28;20783;-84
2021/06/05 09:56:48;;;;;;;21.58;19.52;;;;;;;;;;4992324;28;20212;-81
2021/06/05 09:59:29;;;;;;;20.30;18.63;;;;;;;;;;5003471;28;20195;-84
2021/06/05 10:02:21;;;;;;;20.75;18.80;;;;;;;;;;4998902;28;20198;-84
2021/06/05 10:05:05;;;;;;;21.17;19.17;;;;;;;;;;5000582;28;20188;-80
2021/06/05 10:07:30;;;;;;;21.38;19.50;;;;;;;;;;4998883;28;20270;-84
2021/06/05 10:10:03;;;;;;;21.45;19.75;;;;;;;;;;4997035;28;20734;-83
2021/06/05 10:12:34;;;;;;;21.13;19.42;;;;;;;;;;4997785;28;20210;-89
2021/06/05 10:15:07;;;;;;;21.65;19.95;;;;;;;;;;5001709;28;20217;-84
2021/06/05 10:17:42;;;;;;;21.45;19.35;;;;;;;;;;5000429;28;20190;-83
2021/06/05 10:20:14;;;;;;;20.20;18.50;;;;;;;;;;5006421;28;20187;-83
2021/06/05 10:22:40;;;;;;;20.27;18.50;;;;;;;;;;4993196;28;20203;-82
2021/06/05 10:25:16;;;;;;;18.25;16.83;;;;;;;;;;5000643;28;20196;-82
2021/06/05 10:27:45;;;;;;;18.02;16.52;;;;;;;;;;4994715;28;20663;-81
2021/06/05 10:30:22;;;;;;;17.70;16.30;;;;;;;;;;5004218;28;20227;-84
2021/06/05 10:32:48;;;;;;;15.65;14.35;;;;;;;;;;4999433;28;20199;-80
2021/06/05 10:35:26;;;;;;;16.13;14.63;;;;;;;;;;4992799;28;20389;-80
2021/06/05 10:38:01;;;;;;;16.10;14.63;;;;;;;;;;4991242;28;20211;-79
2021/06/05 10:40:27;;;;;;;14.48;13.23;;;;;;;;;;4992226;28;20306;-80
2021/06/05 10:42:53;;;;;;;14.75;13.55;;;;;;;;;;4994820;28;20302;-79
2021/06/05 10:45:27;;;;;;;14.35;13.05;;;;;;;;;;4993234;28;20188;-81
2021/06/05 10:48:02;;;;;;;14.18;12.85;;;;;;;;;;4993217;28;20191;-80
2021/06/05 10:50:31;;;;;;;12.77;11.68;;;;;;;;;;5002001;28;20655;-81
2021/06/05 10:53:27;;;;;;;15.60;14.30;;;;;;;;;;5007567;28;20305;-79
2021/06/05 10:55:59;;;;;;;14.23;12.82;;;;;;;;;;4991512;28;20299;-81
2021/06/05 10:58:26;;;;;;;14.40;13.10;;;;;;;;;;4995887;28;20191;-80
2021/06/05 11:00:55;;;;;;;14.82;13.63;;;;;;;;;;4999097;28;20182;-81
2021/06/05 11:03:26;;;;;;;16.15;14.65;;;;;;;;;;4999358;28;20298;-83
2021/06/05 11:06:04;;;;;;;15.95;14.55;;;;;;;;;;4996223;28;20194;-78
2021/06/05 11:08:40;;;;;;;15.98;14.68;;;;;;;;;;5001696;28;20249;-80
2021/06/05 11:11:08;;;;;;;15.70;14.30;;;;;;;;;;4998871;28;20197;-79
2021/06/05 11:13:39;;;;;;;16.25;14.68;;;;;;;;;;5003392;28;20621;-80
2021/06/05 11:16:15;;;;;;;16.58;14.98;;;;;;;;;;5002073;28;20199;-81
2021/06/05 11:19:07;;;;;;;15.52;14.13;;;;;;;;;;4998615;28;20279;-79
2021/06/05 11:21:41;;;;;;;14.10;12.98;;;;;;;;;;4995430;28;20200;-80
2021/06/05 11:24:16;;;;;;;15.18;13.88;;;;;;;;;;5005053;28;20273;-80
2021/06/05 11:26:47;;;;;;;14.68;13.43;;;;;;;;;;5000486;28;20576;-80
2021/06/05 11:29:15;;;;;;;16.05;14.65;;;;;;;;;;5000980;28;20179;-81
2021/06/05 11:31:50;;;;;;;17.52;15.93;;;;;;;;;;5002146;28;20185;-80
2021/06/05 11:34:33;;;;;;;19.08;17.13;;;;;;;;;;5004593;28;20225;-81
2021/06/05 11:37:14;;;;;;;19.33;17.45;;;;;;;;;;4999222;28;20192;-81
2021/06/05 11:39:45;;;;;;;18.05;16.45;;;;;;;;;;5003110;28;20629;-80
2021/06/05 11:42:17;;;;;;;18.35;16.75;;;;;;;;;;5003294;28;20223;-81
2021/06/05 11:44:44;;;;;;;19.77;18.00;;;;;;;;;;5007903;28;20175;-80
2021/06/05 11:47:15;;;;;;;19.35;17.33;;;;;;;;;;4993192;28;20184;-80
2021/06/05 11:49:45;;;;;;;18.88;17.10;;;;;;;;;;5004656;28;20213;-80
2021/06/05 11:52:26;;;;;;;19.23;17.40;;;;;;;;;;5004092;28;20219;-79
2021/06/05 11:55:06;;;;;;;20.73;18.83;;;;;;;;;;4998891;28;20211;-80
2021/06/05 11:57:54;;;;;;;21.27;19.10;;;;;;;;;;4995779;28;20713;-78
2021/06/05 12:00:27;;;;;;;25.08;21.17;;;;;;;;;;5001359;28;20183;-79
2021/06/05 12:03:21;;;;;;;17.42;15.63;;;;;;;;;;5001306;28;20691;-81
2021/06/05 12:05:47;;;;;;;14.68;11.93;;;;;;;;;;4998514;28;20171;-80
2021/06/05 12:08:28;;;;;;;23.02;17.50;;;;;;;;;;4994130;28;20192;-80
2021/06/05 12:10:55;;;;;;;15.57;12.93;;;;;;;;;;5002811;28;20183;-79
2021/06/05 12:13:37;;;;;;;18.23;16.27;;;;;;;;;;5003898;28;20272;-78
2021/06/05 12:16:17;;;;;;;20.35;16.27;;;;;;;;;;5002503;28;20248;-81
2021/06/05 12:18:47;;;;;;;22.80;18.07;;;;;;;;;;5000811;28;20645;-79
2021/06/05 12:21:32;;;;;;;23.63;19.87;;;;;;;;;;5002253;28;20191;-79
2021/06/05 12:24:10;;;;;;;25.17;21.77;;;;;;;;;;4997569;28;20690;-81
2021/06/05 12:26:50;;;;;;;22.80;19.53;;;;;;;;;;5005734;28;20572;-80
2021/06/05 12:29:24;;;;;;;23.92;21.40;;;;;;;;;;5009139;28;20613;-80
2021/06/05 12:31:53;;;;;;;22.70;18.67;;;;;;;;;;5008488;28;20198;-80
2021/06/05 12:34:32;;;;;;;18.73;12.77;;;;;;;;;;5010309;28;20287;-81
2021/06/05 12:37:01;;;;;;;20.52;14.15;;;;;;;;;;5011482;28;20497;-80
2021/06/05 12:39:26;;;;;;;15.83;12.10;;;;;;;;;;5008310;28;20199;-80
2021/06/05 12:41:54;;;;;;;14.40;10.85;;;;;;;;;;5011914;28;20265;-81
2021/06/05 12:44:25;;;;;;;22.60;17.37;;;;;;;;;;5010947;28;20183;-79
2021/06/05 12:46:50;;;;;;;25.65;21.25;;;;;;;;;;5002334;28;20287;-81
2021/06/05 12:49:22;;;;;;;28.40;23.42;;;;;;;;;;5010353;28;20179;-81
2021/06/05 12:51:53;;;;;;;23.23;18.92;;;;;;;;;;5001450;28;20470;-81
2021/06/05 12:54:44;;;;;;;14.90;13.25;;;;;;;;;;5006803;28;20298;-81
2021/06/05 12:57:24;;;;;;;13.57;12.15;;;;;;;;;;5004394;28;20210;-81
2021/06/05 12:59:50;;;;;;;9.48;7.38;;;;;;;;;;5001301;28;20674;-82
2021/06/05 13:02:28;;;;;;;11.00;9.30;;;;;;;;;;5008189;28;20229;-82
2021/06/05 13:04:54;;;;;;;12.00;10.13;;;;;;;;;;5010343;28;20172;-82
2021/06/05 13:07:32;;;;;;;12.45;9.02;;;;;;;;;;5007313;28;20301;-81
2021/06/05 13:09:58;;;;;;;14.65;10.75;;;;;;;;;;5007894;28;20218;-83
2021/06/05 13:12:23;;;;;;;10.63;7.78;;;;;;;;;;5007399;28;20235;-82
2021/06/05 13:15:11;;;;;;;13.77;9.35;;;;;;;;;;5010251;28;20214;-81
2021/06/05 13:17:42;;;;;;;12.15;9.82;;;;;;;;;;4999907;28;20175;-82
2021/06/05 13:20:08;;;;;;;15.98;9.95;;;;;;;;;;4991196;28;20660;-83
2021/06/05 13:22:34;;;;;;;11.15;9.18;;;;;;;;;;4990900;28;20222;-83
2021/06/05 13:25:10;;;;;;;12.93;10.68;;;;;;;;;;5005384;28;20180;-84
2021/06/05 13:27:58;;;;;;;16.10;14.30;;;;;;;;;;5003836;28;20324;-83
2021/06/05 13:30:36;;;;;;;16.30;13.05;;;;;;;;;;5008878;28;20601;-84
2021/06/05 13:33:02;;;;;;;14.82;13.25;;;;;;;;;;5003871;28;20198;-82
2021/06/05 13:35:37;;;;;;;13.30;11.05;;;;;;;;;;5006213;28;20294;-81
2021/06/05 13:38:14;;;;;;;12.45;11.05;;;;;;;;;;4999894;28;20191;-82
2021/06/05 13:40:40;;;;;;;12.05;10.75;;;;;;;;;;4984763;28;20199;-82
2021/06/05 13:43:05;;;;;;;10.57;9.55;;;;;;;;;;5002375;28;20221;-81
2021/06/05 13:45:33;;;;;;;9.52;8.43;;;;;;;;;;5005305;28;20183;-81
2021/06/05 13:48:00;;;;;;;9.90;8.82;;;;;;;;;;4983327;28;20749;-81
2021/06/05 13:50:28;;;;;;;8.75;7.93;;;;;;;;;;5000026;28;20200;-80
2021/06/05 13:53:11;;;;;;;9.10;8.25;;;;;;;;;;5004293;28;20203;-80
2021/06/05 13:55:40;;;;;;;7.65;6.78;;;;;;;;;;5004912;28;20210;-78
2021/06/05 13:58:07;;;;;;;6.25;5.70;;;;;;;;;;5004708;28;20183;-80
2021/06/05 14:00:35;;;;;;;7.82;7.03;;;;;;;;;;5007265;28;20260;-80
2021/06/05 14:03:00;;;;;;;6.00;5.40;;;;;;;;;;5006268;28;20218;-81
2021/06/05 14:05:25;;;;;;;6.93;6.22;;;;;;;;;;5006548;28;20191;-81
2021/06/05 14:07:54;;;;;;;9.88;7.22;;;;;;;;;;5002719;28;20645;-82
2021/06/05 14:10:20;;;;;;;11.23;9.18;;;;;;;;;;5008671;28;20179;-80
2021/06/05 14:12:49;;;;;;;7.90;7.10;;;;;;;;;;5002616;28;20222;-87
2021/06/05 14:15:41;;;;;;;8.05;7.25;;;;;;;;;;5002357;28;20667;-81
2021/06/05 14:18:10;;;;;;;13.88;9.30;;;;;;;;;;4998491;28;20187;-81
2021/06/05 14:20:38;;;;;;;11.15;9.95;;;;;;;;;;5002026;28;20191;-81
2021/06/05 14:23:04;;;;;;;13.75;11.15;;;;;;;;;;5005342;28;20211;-82
2021/06/05 14:25:29;;;;;;;17.77;13.25;;;;;;;;;;4997879;28;20196;-82
2021/06/05 14:27:56;;;;;;;15.50;12.65;;;;;;;;;;4992021;28;20202;-82
2021/06/05 14:30:27;;;;;;;16.48;12.68;;;;;;;;;;4989660;28;20195;-81
2021/06/05 14:32:52;;;;;;;18.85;14.98;;;;;;;;;;4993996;28;20265;-83
2021/06/05 14:35:18;;;;;;;20.77;15.95;;;;;;;;;;4993395;28;20211;-85